ADDS METAR Data INFO
IDs: Format: Raw Decoded Include TAF

Data at: 0102 UTC 22 Oct 2017

KAIO 220055Z AUTO 32008KT 10SM FEW049 FEW075 SCT090 13/08 A2986 RMK AO2
KAIO 220035Z AUTO 32008G13KT 10SM SCT055 BKN075 OVC090 13/09 A2985 RMK AO2
KAIO 220015Z AUTO 31008KT 10SM BKN055 OVC065 14/09 A2985 RMK AO2
KAIO 212355Z AUTO 32012KT 10SM OVC060 14/09 A2984 RMK AO2
KAIO 212335Z AUTO 31012G17KT 10SM SCT040 OVC055 14/09 A2984 RMK AO2
KAIO 212315Z AUTO 31009KT 10SM BKN039 OVC060 14/10 A2983 RMK AO2
KAIO 212255Z AUTO 32011KT 10SM SCT037 OVC060 14/10 A2980 RMK AO2
KAIO 212235Z AUTO 32013KT 10SM BKN037 BKN048 BKN070 15/10 A2980 RMK AO2
KAIO 212215Z AUTO 31012G21KT 10SM SCT033 BKN048 SCT060 15/12 A2978 RMK AO2
KAIO 212155Z AUTO 30017G30KT 4SM -DZ FEW012 FEW025 BKN032 15/13 A2977 RMK AO2
KAIO 212135Z AUTO 22021KT 1 1/2SM RA BKN027 BKN034 OVC042 21/18 A2970 RMK AO2
KAIO 212115Z AUTO 18015G24KT 10SM SCT033 BKN039 BKN050 22/17 A2967 RMK AO2
KAIO 212055Z AUTO 18014G23KT 10SM SCT031 SCT036 SCT070 22/17 A2967 RMK AO2
KAIO 212035Z AUTO 17019G25KT 10SM FEW027 SCT033 BKN070 24/17 A2966 RMK AO2
KAIO 212015Z AUTO 18017G27KT 10SM BKN030 BKN035 BKN070 23/17 A2968 RMK AO2
KAIO 211955Z AUTO 18021G29KT 10SM SCT029 SCT035 BKN060 23/17 A2968 RMK AO2
KAIO 211935Z AUTO 18019G25KT 10SM OVC060 23/17 A2970 RMK AO2
KAIO 211915Z AUTO 18019G25KT 10SM FEW028 OVC060 22/17 A2970 RMK AO2
KAIO 211855Z AUTO 18014G21KT 10SM BKN028 BKN037 BKN060 22/17 A2971 RMK AO2
KAIO 211835Z AUTO 18014G25KT 10SM OVC026 21/17 A2971 RMK AO2
KAIO 211815Z AUTO 19014G23KT 10SM OVC024 21/17 A2972 RMK AO2
KAIO 211755Z AUTO 18017G26KT 10SM BKN025 BKN050 21/17 A2971 RMK AO2
KAIO 211735Z AUTO 17017G26KT 10SM BKN025 OVC049 21/17 A2971 RMK AO2
KAIO 211715Z AUTO 17015G22KT 10SM OVC024 20/16 A2971 RMK AO2
KAIO 211655Z AUTO 18012G19KT 10SM OVC024 20/16 A2972 RMK AO2
KAIO 211635Z AUTO 18018G24KT 10SM OVC024 20/16 A2971 RMK AO2
KAIO 211615Z AUTO 18016G26KT 10SM OVC024 20/16 A2972 RMK AO2
KAIO 211555Z AUTO 18014G20KT 10SM OVC023 20/16 A2972 RMK AO2
KAIO 211535Z AUTO 19015G20KT 10SM OVC022 20/16 A2972 RMK AO2
KAIO 211515Z AUTO 18014G20KT 10SM OVC022 19/16 A2971 RMK AO2
KAIO 211455Z AUTO 18015G23KT 10SM OVC022 19/16 A2971 RMK AO2
KAIO 211435Z AUTO 18014G24KT 10SM OVC022 19/16 A2970 RMK AO2
KAIO 211415Z AUTO 18015G21KT 10SM OVC021 19/16 A2970 RMK AO2
KAIO 211355Z AUTO 17015G23KT 10SM OVC020 19/16 A2969 RMK AO2
KAIO 211335Z AUTO 18013G22KT 10SM OVC020 19/16 A2969 RMK AO2
KAIO 211315Z AUTO 18015KT 10SM OVC019 19/16 A2970 RMK AO2
KAIO 211255Z AUTO 18015G23KT 10SM OVC019 19/16 A2969 RMK AO2
KAIO 211235Z AUTO 17016G24KT 10SM OVC019 19/16 A2968 RMK AO2
KAIO 211215Z AUTO 18016G22KT 10SM OVC019 19/16 A2969 RMK AO2
KAIO 211155Z AUTO 17014G26KT 10SM OVC020 18/16 A2968 RMK AO2
KAIO 211135Z AUTO 17017G28KT 10SM OVC020 19/16 A2968 RMK AO2
KAIO 211115Z AUTO 18017G25KT 10SM OVC020 19/16 A2968 RMK AO2
KAIO 211055Z AUTO 17017G25KT 10SM OVC021 19/16 A2968 RMK AO2
KAIO 211035Z AUTO 17016G23KT 10SM OVC022 18/16 A2968 RMK AO2
KAIO 211015Z AUTO 17014G21KT 10SM OVC021 18/16 A2968 RMK AO2
KAIO 210955Z AUTO 16015G21KT 10SM OVC021 18/16 A2968 RMK AO2 P0001
KAIO 210935Z AUTO 17012KT 10SM OVC021 18/16 A2968 RMK AO2
KAIO 210915Z AUTO 17011G17KT 10SM BKN022 OVC029 18/16 A2969 RMK AO2
KAIO 210855Z AUTO 19013G20KT 2SM -RA BKN027 BKN043 OVC070 17/16 A2971 RMK AO2 VIS 1 1/4V5
KAIO 210835Z AUTO 18014G20KT 6SM -RA BKN023 BKN028 OVC060 17/15 A2971 RMK AO2
KAIO 210815Z AUTO 18011KT 10SM OVC027 17/15 A2971 RMK AO2
KAIO 210755Z AUTO 19014G20KT 9SM BKN026 OVC041 17/15 A2973 RMK AO2
KAIO 210735Z AUTO 17015G23KT 4SM -RA BKN028 BKN034 OVC060 17/14 A2971 RMK AO2
KAIO 210715Z AUTO 17015KT 10SM SCT030 BKN095 18/14 A2972 RMK AO2
KAIO 210655Z AUTO 17012G19KT 10SM FEW027 SCT032 BKN095 18/13 A2972 RMK AO2
KAIO 210635Z AUTO 17012G21KT 10SM BKN032 18/13 A2973 RMK AO2
KAIO 210615Z AUTO 17015G23KT 10SM FEW034 FEW041 18/13 A2974 RMK AO2
KAIO 210555Z AUTO 17014G20KT 10SM SCT041 18/13 A2974 RMK AO2
KAIO 210535Z AUTO 16013G19KT 10SM FEW041 FEW048 18/14 A2975 RMK AO2
KAIO 210515Z AUTO 17013G19KT 10SM FEW047 18/14 A2975 RMK AO2
KAIO 210455Z AUTO 17013G22KT 10SM FEW046 FEW055 18/14 A2976 RMK AO2
KAIO 210435Z AUTO 16014G21KT 10SM FEW046 SCT055 18/14 A2976 RMK AO2
KAIO 210415Z AUTO 16015G24KT 10SM BKN055 18/14 A2977 RMK AO2
KAIO 210355Z AUTO 17017G22KT OVC055 18/14 A2977 RMK AO2
KAIO 210335Z AUTO 17012G22KT 10SM OVC055 19/14 A2978 RMK AO2
KAIO 210315Z AUTO 17014G21KT 10SM SCT055 18/14 A2978 RMK AO2
KAIO 210255Z AUTO 17015G22KT 10SM CLR 18/14 A2978 RMK AO2
KAIO 210235Z AUTO 17013G23KT 10SM CLR 18/14 A2977 RMK AO2
KAIO 210215Z AUTO 16016G22KT 10SM CLR 19/14 A2977 RMK AO2
KAIO 210155Z AUTO 16013G20KT 10SM CLR 19/14 A2976 RMK AO2
KAIO 210135Z AUTO 16016G24KT 10SM CLR 19/14 A2976 RMK AO2
KAIO 210115Z AUTO 16014G21KT 10SM CLR 19/14 A2977 RMK AO2
KAIO 210055Z AUTO 16014G22KT 10SM FEW046 20/14 A2976 RMK AO2
KAIO 210035Z AUTO 16013G20KT 10SM SCT046 20/14 A2976 RMK AO2
KAIO 210015Z AUTO 16013G19KT 10SM OVC045 20/14 A2977 RMK AO2
KAIO 202355Z AUTO 17013G21KT 10SM BKN047 21/14 A2977 RMK AO2
KAIO 202335Z AUTO 16015G23KT 10SM OVC047 21/14 A2977 RMK AO2
KAIO 202315Z AUTO 16015KT 10SM OVC047 22/14 A2977 RMK AO2
KAIO 202255Z AUTO 18015G20KT 10SM BKN048 22/14 A2978 RMK AO2
KAIO 202235Z AUTO 17015G25KT 10SM SCT049 23/14 A2977 RMK AO2
KAIO 202215Z AUTO 16013G24KT 10SM SCT046 23/14 A2977 RMK AO2
KAIO 202155Z AUTO 17019G29KT 10SM BKN046 23/14 A2978 RMK AO2
KAIO 202135Z AUTO 17018G26KT 10SM SCT046 23/14 A2978 RMK AO2
KAIO 202115Z AUTO 18018G27KT 10SM BKN046 BKN050 24/14 A2979 RMK AO2
KAIO 202055Z AUTO 17018G27KT 10SM SCT047 24/14 A2979 RMK AO2
KAIO 202035Z AUTO 17016G27KT 10SM SCT047 24/14 A2980 RMK AO2
KAIO 202015Z AUTO 17018G26KT 10SM CLR 24/13 A2980 RMK AO2
KAIO 201955Z AUTO 17016G26KT 140V200 10SM CLR 24/13 A2981 RMK AO2
KAIO 201935Z AUTO 17019G28KT 10SM CLR 23/13 A2982 RMK AO2
KAIO 201915Z AUTO 18014G26KT 10SM CLR 24/13 A2983 RMK AO2
KAIO 201855Z AUTO 18018G24KT 10SM CLR 24/13 A2984 RMK AO2
KAIO 201835Z AUTO 18019G27KT 10SM CLR 23/13 A2985 RMK AO2
KAIO 201815Z AUTO 19016G21KT 10SM CLR 23/13 A2987 RMK AO2
KAIO 201755Z AUTO 17016KT 10SM CLR 23/13 A2989 RMK AO2
KAIO 201735Z AUTO 18014G23KT 10SM CLR 22/13 A2991 RMK AO2
KAIO 201715Z AUTO 19015G22KT 10SM CLR 22/13 A2992 RMK AO2
KAIO 201655Z AUTO 18012G23KT 10SM CLR 21/13 A2992 RMK AO2
KAIO 201635Z AUTO 18015G27KT 10SM CLR 20/13 A2993 RMK AO2
KAIO 201615Z AUTO 18013KT 10SM CLR 19/13 A2995 RMK AO2
KAIO 201555Z AUTO 19010KT 10SM CLR 18/12 A2996 RMK AO2
KAIO 201535Z AUTO 18009G15KT 10SM CLR 17/12 A2997 RMK AO2
KAIO 201515Z AUTO 17010KT 10SM CLR 17/12 A2997 RMK AO2
KAIO 201455Z AUTO 18013G21KT 10SM CLR 17/12 A2998 RMK AO2
KAIO 201435Z AUTO 18012KT 10SM CLR 17/12 A2998 RMK AO2
KAIO 201415Z AUTO 18009KT 10SM CLR 16/12 A2998 RMK AO2
KAIO 201355Z AUTO 18006G12KT 10SM CLR 14/12 A2999 RMK AO2
KAIO 201335Z AUTO 18007KT 10SM CLR 14/11 A2999 RMK AO2
KAIO 201315Z AUTO 19007KT 10SM CLR 13/11 A2999 RMK AO2